Time;durP1;ratioP1;P1;durP2;ratioP2;P2;SDS_P1;SDS_P2;PMS_P1;PMS_P2;Temp;Humidity;BMP_temperature;BMP_pressure;BME280_temperature;BME280_humidity;BME280_pressure;Samples;Min_cycle;Max_cycle;Signal;HPM_P1;HPM_P2
2022/07/21 00:00:24;;;;;;;11.95;6.60;;;;;;;25.97;36.27;100801.53;5043747;28;20053;-59
2022/07/21 00:02:53;;;;;;;11.80;6.50;;;;;;;25.92;36.49;100795.03;5039252;28;20288;-57
2022/07/21 00:05:20;;;;;;;10.90;6.07;;;;;;;25.90;36.72;100794.41;5035189;28;20077;-53
2022/07/21 00:07:48;;;;;;;9.38;5.97;;;;;;;25.85;36.70;100792.28;5036916;28;20050;-54
2022/07/21 00:10:16;;;;;;;14.60;6.53;;;;;;;25.83;36.80;100788.06;5037952;28;20049;-58
2022/07/21 00:12:43;;;;;;;14.32;6.25;;;;;;;25.79;36.98;100782.22;5032642;28;20522;-58
2022/07/21 00:15:11;;;;;;;13.60;6.20;;;;;;;25.77;36.99;100781.56;5038094;28;20193;-56
2022/07/21 00:17:38;;;;;;;9.70;5.90;;;;;;;25.72;36.95;100782.09;5037050;28;20053;-58
2022/07/21 00:20:07;;;;;;;13.63;6.40;;;;;;;25.69;38.22;100781.63;5030637;28;20449;-56
2022/07/21 00:22:35;;;;;;;11.77;6.53;;;;;;;25.65;37.46;100773.06;5037457;28;20411;-55
2022/07/21 00:25:04;;;;;;;14.63;6.50;;;;;;;25.63;37.66;100774.28;5033399;28;20077;-55
2022/07/21 00:27:31;;;;;;;13.48;6.22;;;;;;;25.60;37.72;100766.56;5045049;28;20053;-57
2022/07/21 00:29:59;;;;;;;10.82;6.22;;;;;;;25.57;37.75;100764.22;5030423;28;20297;-57
2022/07/21 00:32:26;;;;;;;7.88;6.32;;;;;;;25.53;37.90;100752.97;5035428;28;20131;-56
2022/07/21 00:35:01;;;;;;;;;;;;;;;25.49;38.13;100752.53;5037163;28;20629;-59
2022/07/21 00:37:28;;;;;;;11.23;5.78;;;;;;;25.45;37.95;100745.00;5037891;28;20509;-57
2022/07/21 00:39:55;;;;;;;12.70;6.53;;;;;;;25.42;37.88;100753.44;5030992;28;20533;-56
2022/07/21 00:42:27;;;;;;;16.73;6.45;;;;;;;25.40;38.61;100742.00;5039863;28;20055;-55
2022/07/21 00:44:55;;;;;;;11.63;6.38;;;;;;;25.37;38.61;100751.28;5029741;28;20049;-58
2022/07/21 00:47:23;;;;;;;10.70;6.20;;;;;;;25.36;38.36;100748.78;5037386;28;20063;-57
2022/07/21 00:49:51;;;;;;;10.77;5.70;;;;;;;25.36;38.85;100740.69;5031992;28;20057;-57
2022/07/21 00:52:18;;;;;;;9.18;5.68;;;;;;;25.33;38.62;100744.59;5036582;28;20049;-57
2022/07/21 00:54:46;;;;;;;12.75;6.13;;;;;;;25.33;38.82;100741.91;5022414;28;20054;-60
2022/07/21 00:57:14;;;;;;;10.38;5.97;;;;;;;25.32;38.88;100744.78;5023859;28;20053;-58
2022/07/21 00:59:42;;;;;;;11.68;6.38;;;;;;;25.31;39.30;100748.47;5038582;28;20056;-57
2022/07/21 01:02:12;;;;;;;11.98;6.13;;;;;;;25.30;39.07;100744.94;5050884;28;20049;-58
2022/07/21 01:04:40;;;;;;;12.30;6.00;;;;;;;25.30;38.78;100750.34;5014167;28;20536;-56
2022/07/21 01:07:07;;;;;;;10.40;6.30;;;;;;;25.30;38.62;100744.13;5009922;28;20046;-56
2022/07/21 01:09:35;;;;;;;10.57;5.82;;;;;;;25.27;38.89;100739.94;5010680;28;20061;-59
2022/07/21 01:12:03;;;;;;;12.50;6.15;;;;;;;25.27;38.58;100741.81;5009263;28;20058;-57
2022/07/21 01:14:31;;;;;;;10.07;5.63;;;;;;;25.23;38.82;100744.84;5009440;28;20049;-58
2022/07/21 01:17:00;;;;;;;12.38;6.03;;;;;;;25.21;39.10;100746.88;5007492;28;20062;-56
2022/07/21 01:19:27;;;;;;;10.50;6.25;;;;;;;25.20;39.06;100750.59;5026258;28;20056;-55
2022/07/21 01:21:55;;;;;;;11.20;5.82;;;;;;;25.19;39.05;100742.72;5016085;28;20054;-55
2022/07/21 01:24:22;;;;;;;9.50;5.88;;;;;;;25.17;39.11;100750.13;5011020;28;20658;-54
2022/07/21 01:26:52;;;;;;;10.98;5.78;;;;;;;25.15;39.28;100746.78;5025203;28;20045;-55
2022/07/21 01:29:20;;;;;;;9.50;6.20;;;;;;;25.14;39.66;100747.81;5033035;28;20057;-56
2022/07/21 01:31:48;;;;;;;10.48;5.55;;;;;;;25.10;39.49;100741.94;5029070;28;20405;-53
2022/07/21 01:34:15;;;;;;;8.02;6.10;;;;;;;25.09;39.54;100740.28;5012224;28;20050;-57
2022/07/21 01:36:42;;;;;;;12.60;6.47;;;;;;;25.07;39.68;100731.50;5009022;28;20049;-57
2022/07/21 01:41:55;;;;;;;8.80;6.47;;;;;;;25.03;39.93;100727.50;5018236;28;20559;-56
2022/07/21 01:44:22;;;;;;;10.68;5.95;;;;;;;25.00;40.17;100725.19;5010826;28;20050;-58
2022/07/21 01:46:51;;;;;;;10.45;6.07;;;;;;;24.96;39.89;100726.56;5013295;28;20060;-58
2022/07/21 01:49:19;;;;;;;9.93;5.95;;;;;;;24.93;39.85;100732.31;5031787;28;20059;-57
2022/07/21 01:51:47;;;;;;;10.90;6.43;;;;;;;24.88;40.04;100730.16;5038035;28;20053;-57
2022/07/21 01:54:15;;;;;;;12.60;6.75;;;;;;;24.87;40.45;100731.19;5032803;28;20056;-58
2022/07/21 01:56:49;;;;;;;13.73;6.65;;;;;;;24.83;40.52;100721.78;5029562;28;20405;-55
2022/07/21 01:59:16;;;;;;;9.90;6.68;;;;;;;24.81;40.33;100720.28;5039387;28;20052;-57
2022/07/21 02:01:43;;;;;;;14.45;6.60;;;;;;;24.78;40.45;100726.88;5024354;28;20060;-57
2022/07/21 02:04:10;;;;;;;8.77;6.10;;;;;;;24.74;40.34;100721.00;5036320;28;20045;-57
2022/07/21 02:06:38;;;;;;;9.23;6.15;;;;;;;24.71;40.49;100725.91;5034274;28;20532;-54
2022/07/21 02:09:06;;;;;;;10.05;5.97;;;;;;;24.69;40.89;100734.19;5032942;28;20072;-57
2022/07/21 02:11:34;;;;;;;13.07;6.38;;;;;;;24.65;40.91;100724.78;5018792;28;20406;-58
2022/07/21 02:14:01;;;;;;;10.48;6.47;;;;;;;24.63;41.09;100724.13;5034376;28;20121;-56
2022/07/21 02:16:29;;;;;;;9.68;6.00;;;;;;;24.61;40.98;100715.38;5033476;28;20045;-58
2022/07/21 02:18:56;;;;;;;11.88;6.15;;;;;;;24.60;41.03;100718.28;5035389;28;20516;-54
2022/07/21 02:21:24;;;;;;;12.02;6.03;;;;;;;24.57;41.49;100716.75;5033889;28;20046;-57
2022/07/21 02:23:51;;;;;;;11.98;6.40;;;;;;;24.55;41.47;100721.50;5034701;28;20509;-56
2022/07/21 02:26:18;;;;;;;12.43;6.40;;;;;;;24.54;41.49;100725.19;5028130;28;20124;-55
2022/07/21 02:28:45;;;;;;;8.18;6.50;;;;;;;24.52;41.51;100721.00;5035378;28;20075;-59
2022/07/21 02:31:13;;;;;;;10.35;6.50;;;;;;;24.50;41.86;100719.34;5028211;28;20065;-58
2022/07/21 02:33:40;;;;;;;9.27;5.60;;;;;;;24.47;42.03;100714.31;5040060;28;20057;-56
2022/07/21 02:36:07;;;;;;;12.95;6.57;;;;;;;24.46;42.02;100722.56;5027001;28;20057;-55
2022/07/21 02:38:35;;;;;;;12.52;6.38;;;;;;;24.45;41.99;100728.94;5039337;28;20053;-57
2022/07/21 02:41:02;;;;;;;11.65;5.97;;;;;;;24.43;42.16;100720.22;5040986;28;20045;-54
2022/07/21 02:43:29;;;;;;;10.75;6.07;;;;;;;24.42;42.06;100719.41;5035777;28;20041;-55
2022/07/21 02:45:56;;;;;;;16.73;6.07;;;;;;;24.41;42.31;100720.41;5030217;28;20057;-55
2022/07/21 02:48:24;;;;;;;10.65;6.20;;;;;;;24.37;42.42;100729.03;5040057;28;20528;-56
2022/07/21 02:50:51;;;;;;;8.27;5.78;;;;;;;24.36;42.63;100721.91;5033061;28;20060;-54
2022/07/21 02:53:22;;;;;;;8.57;5.40;;;;;;;24.35;42.68;100720.25;5037317;28;20049;-58
2022/07/21 02:55:52;;;;;;;11.82;6.32;;;;;;;24.31;42.95;100725.13;5033977;28;20148;-56
2022/07/21 02:58:26;;;;;;;10.40;6.35;;;;;;;24.30;43.09;100719.94;5043646;28;20417;-57
2022/07/21 03:00:57;;;;;;;6.73;5.60;;;;;;;24.28;43.18;100714.75;5034722;28;20137;-58
2022/07/21 03:03:27;;;;;;;12.68;5.88;;;;;;;24.26;43.10;100714.06;5031904;28;20056;-55
2022/07/21 03:05:55;;;;;;;8.82;5.85;;;;;;;24.25;43.24;100699.78;5035667;28;20129;-57
2022/07/21 03:08:23;;;;;;;10.43;5.97;;;;;;;24.26;43.25;100700.63;5042498;28;20480;-58
2022/07/21 03:10:50;;;;;;;9.82;6.00;;;;;;;24.28;43.35;100695.09;5036394;28;20057;-57
2022/07/21 03:13:17;;;;;;;10.30;6.18;;;;;;;24.26;43.32;100688.00;5041319;28;20496;-53
2022/07/21 03:15:45;;;;;;;10.00;5.72;;;;;;;24.27;43.46;100675.38;5038519;28;20049;-59
2022/07/21 03:18:12;;;;;;;11.10;6.07;;;;;;;24.26;43.30;100690.69;5051795;28;20053;-59
2022/07/21 03:20:41;;;;;;;13.90;5.78;;;;;;;24.24;43.45;100697.28;5035663;28;20050;-58
2022/07/21 03:23:08;;;;;;;10.00;6.13;;;;;;;24.22;43.42;100680.47;5023687;28;20505;-58
2022/07/21 03:25:35;;;;;;;9.45;5.78;;;;;;;24.21;43.44;100684.19;5034021;28;20516;-58
2022/07/21 03:28:03;;;;;;;14.60;6.65;;;;;;;24.19;43.47;100695.13;5031880;28;20067;-54
2022/07/21 03:30:31;;;;;;;13.48;5.95;;;;;;;24.18;43.57;100709.59;5021910;28;20414;-57
2022/07/21 03:32:58;;;;;;;10.25;5.65;;;;;;;24.16;43.85;100716.16;5012497;28;20061;-55
2022/07/21 03:35:25;;;;;;;8.60;5.63;;;;;;;24.15;43.95;100722.56;5011286;28;20065;-58
2022/07/21 03:37:53;;;;;;;9.13;6.30;;;;;;;24.13;44.07;100728.09;5012025;28;20054;-59
2022/07/21 03:40:25;;;;;;;14.93;6.20;;;;;;;24.13;44.23;100730.78;5011291;28;20046;-58
2022/07/21 03:42:55;;;;;;;7.40;4.90;;;;;;;24.15;44.05;100722.56;5031780;28;20061;-57
2022/07/21 03:45:23;;;;;;;9.02;5.28;;;;;;;24.14;44.02;100721.72;5030151;28;20049;-57
2022/07/21 03:47:50;;;;;;;11.52;6.00;;;;;;;24.15;43.96;100734.16;5023778;28;20312;-53
2022/07/21 03:50:18;;;;;;;8.52;4.78;;;;;;;24.17;43.88;100729.41;5009448;28;20068;-57
2022/07/21 03:52:46;;;;;;;7.30;4.80;;;;;;;24.17;43.75;100737.50;5012388;28;20224;-57
2022/07/21 03:55:20;;;;;;;9.13;5.15;;;;;;;24.19;43.97;100721.19;5010624;28;20057;-58
2022/07/21 03:57:52;;;;;;;8.25;5.50;;;;;;;24.21;43.55;100728.06;5024950;28;20069;-54
2022/07/21 04:00:23;;;;;;;8.80;5.07;;;;;;;24.22;43.66;100729.72;5029896;28;20061;-56
2022/07/21 04:02:51;;;;;;;8.23;4.80;;;;;;;24.23;43.50;100725.22;5031590;28;20061;-56
2022/07/21 04:05:18;;;;;;;13.02;6.13;;;;;;;24.23;43.66;100725.22;5019087;28;20399;-57
2022/07/21 04:07:47;;;;;;;11.52;5.03;;;;;;;24.23;43.50;100714.44;5011537;28;20058;-56
2022/07/21 04:10:17;;;;;;;17.75;5.40;;;;;;;24.24;43.46;100726.88;5010225;28;20054;-57
2022/07/21 04:12:44;;;;;;;9.07;4.55;;;;;;;24.24;43.59;100743.84;5010408;28;20518;-57
2022/07/21 04:15:12;;;;;;;8.68;5.30;;;;;;;24.24;43.31;100743.84;5027059;28;20417;-57
2022/07/21 04:17:39;;;;;;;9.02;5.38;;;;;;;24.24;43.87;100749.22;5036932;28;20056;-57
2022/07/21 04:20:08;;;;;;;11.93;5.47;;;;;;;24.25;43.82;100753.59;5050347;28;20068;-56
2022/07/21 04:22:35;;;;;;;11.82;4.95;;;;;;;24.28;44.02;100759.66;5025944;28;20057;-56
2022/07/21 04:25:04;;;;;;;15.32;5.57;;;;;;;24.28;44.09;100759.66;5009650;28;20058;-57
2022/07/21 04:27:31;;;;;;;13.35;5.22;;;;;;;24.28;44.08;100749.72;5033882;28;20046;-51
2022/07/21 04:29:58;;;;;;;9.50;5.00;;;;;;;24.30;44.09;100763.00;5009927;28;20057;-57
2022/07/21 04:32:25;;;;;;;18.20;5.63;;;;;;;24.30;44.08;100755.75;5014320;28;20069;-57
2022/07/21 04:34:53;;;;;;;10.93;5.70;;;;;;;24.33;44.09;100766.16;5029545;28;20068;-57
2022/07/21 04:37:20;;;;;;;10.32;5.45;;;;;;;24.36;44.26;100770.34;5031638;28;20112;-56
2022/07/21 04:39:47;;;;;;;11.98;5.70;;;;;;;24.37;44.07;100775.59;5029750;28;20343;-57
2022/07/21 04:42:19;;;;;;;10.50;5.22;;;;;;;24.40;44.12;100777.91;5030198;28;20421;-55
2022/07/21 04:44:47;;;;;;;8.68;5.43;;;;;;;24.43;44.13;100790.19;5029301;28;20049;-55
2022/07/21 04:47:15;;;;;;;16.83;5.45;;;;;;;24.46;44.56;100792.53;5030849;28;20056;-55
2022/07/21 04:49:42;;;;;;;9.32;5.57;;;;;;;24.39;44.30;100788.88;5015957;28;20060;-59
2022/07/21 04:52:09;;;;;;;23.33;6.25;;;;;;;24.44;44.05;100789.16;5011143;28;20054;-58
2022/07/21 04:54:36;;;;;;;19.25;5.68;;;;;;;24.41;44.48;100795.75;5010686;28;20054;-59
2022/07/21 04:57:05;;;;;;;13.45;5.72;;;;;;;24.41;44.23;100794.94;5021103;28;20041;-58
2022/07/21 04:59:33;;;;;;;9.77;5.18;;;;;;;24.44;44.25;100787.31;5026850;28;20057;-58
2022/07/21 05:02:01;;;;;;;15.45;5.72;;;;;;;24.43;44.33;100804.47;5029893;28;20129;-58
2022/07/21 05:04:28;;;;;;;18.38;6.03;;;;;;;24.39;44.59;100807.69;5030964;28;20471;-58
2022/07/21 05:06:56;;;;;;;10.20;6.47;;;;;;;24.35;44.68;100793.72;5015492;28;20497;-56
2022/07/21 05:09:23;;;;;;;13.10;7.43;;;;;;;24.26;45.37;100801.00;5010825;28;20411;-57
2022/07/21 05:11:51;;;;;;;20.52;8.30;;;;;;;24.25;45.47;100812.78;5009545;28;20467;-57
2022/07/21 05:14:18;;;;;;;15.10;8.10;;;;;;;24.23;45.68;100817.50;5025838;28;20050;-56
2022/07/21 05:16:45;;;;;;;29.88;13.35;;;;;;;24.12;47.35;100833.19;5015326;28;20053;-57
2022/07/21 05:19:12;;;;;;;24.73;12.55;;;;;;;24.02;47.61;100830.69;5060606;28;20097;-58
2022/07/21 05:21:40;;;;;;;23.50;14.35;;;;;;;23.96;48.22;100829.53;5048865;28;20053;-54
2022/07/21 05:24:07;;;;;;;25.30;13.43;;;;;;;23.94;48.47;100849.53;5027693;28;20053;-57
2022/07/21 05:26:34;;;;;;;33.50;14.73;;;;;;;23.74;49.71;100849.91;5031430;28;20060;-57
2022/07/21 05:29:02;;;;;;;26.88;14.63;;;;;;;23.73;49.79;100845.56;5046985;22;20057;-60
2022/07/21 05:31:30;;;;;;;25.17;14.27;;;;;;;23.78;49.79;100855.78;5027689;28;20057;-58
2022/07/21 05:33:57;;;;;;;22.40;14.48;;;;;;;23.74;49.94;100849.91;5023069;28;20058;-58
2022/07/21 05:36:24;;;;;;;20.92;14.35;;;;;;;23.87;50.17;100859.31;5009859;28;20050;-59
2022/07/21 05:38:51;;;;;;;23.42;14.55;;;;;;;23.87;50.45;100864.69;5011757;28;20054;-60
2022/07/21 05:41:21;;;;;;;21.45;15.73;;;;;;;23.76;50.89;100865.88;5014704;28;20052;-58
2022/07/21 05:43:48;;;;;;;26.67;15.55;;;;;;;23.73;50.86;100867.06;5012855;28;20503;-58
2022/07/21 05:46:15;;;;;;;22.45;15.63;;;;;;;23.69;51.38;100875.63;5007947;28;20054;-54
2022/07/21 05:48:42;;;;;;;27.15;16.02;;;;;;;23.65;51.68;100877.81;5009562;28;20200;-55
2022/07/21 05:51:09;;;;;;;22.17;16.15;;;;;;;23.62;51.29;100872.75;5008244;28;20073;-59
2022/07/21 05:53:44;;;;;;;20.23;15.30;;;;;;;23.73;52.01;100869.75;5009582;28;20053;-58
2022/07/21 05:56:11;;;;;;;30.05;16.50;;;;;;;23.85;51.38;100880.13;5013661;28;20053;-57
2022/07/21 05:58:39;;;;;;;25.77;15.82;;;;;;;23.95;51.55;100888.84;5025288;28;20054;-56
2022/07/21 06:01:08;;;;;;;29.73;16.05;;;;;;;24.10;50.95;100889.84;5027773;28;20144;-57
2022/07/21 06:03:37;;;;;;;21.35;15.57;;;;;;;23.87;51.86;100889.72;5029029;28;20083;-59
2022/07/21 06:06:05;;;;;;;23.75;15.77;;;;;;;23.91;51.72;100898.25;5027810;28;20698;-58
2022/07/21 06:08:32;;;;;;;22.83;15.90;;;;;;;23.89;51.96;100903.00;5012318;28;20065;-60
2022/07/21 06:10:59;;;;;;;41.17;17.17;;;;;;;23.78;52.28;100916.78;5008183;28;20069;-54
2022/07/21 06:13:26;;;;;;;22.70;15.00;;;;;;;23.68;52.40;100912.41;5024362;28;20057;-57
2022/07/21 06:15:54;;;;;;;29.80;16.40;;;;;;;23.64;52.36;100912.88;5012824;28;20069;-55
2022/07/21 06:18:21;;;;;;;26.17;16.00;;;;;;;23.60;52.68;100896.28;5031544;28;20049;-60
2022/07/21 06:20:49;;;;;;;21.63;15.27;;;;;;;23.78;51.98;100892.59;5047387;28;20055;-58
2022/07/21 06:23:16;;;;;;;25.75;16.55;;;;;;;23.85;51.86;100890.91;5031951;28;20054;-57
2022/07/21 06:25:43;;;;;;;28.83;15.77;;;;;;;23.85;51.74;100896.28;5019186;28;20049;-57
2022/07/21 06:28:11;;;;;;;22.48;15.40;;;;;;;23.89;51.90;100889.53;5032237;28;20057;-57
2022/07/21 06:30:38;;;;;;;25.17;15.82;;;;;;;23.81;51.95;100892.25;5029347;28;20054;-55
2022/07/21 06:33:05;;;;;;;31.02;16.40;;;;;;;23.64;52.89;100892.28;5013366;28;20250;-58
2022/07/21 06:35:32;;;;;;;21.70;16.05;;;;;;;23.80;52.57;100912.91;5011292;28;20054;-57
2022/07/21 06:37:59;;;;;;;23.08;15.70;;;;;;;23.78;52.52;100909.56;5013406;28;20061;-55
2022/07/21 06:40:27;;;;;;;23.75;16.75;;;;;;;23.85;52.58;100910.56;5012510;28;20071;-56
2022/07/21 06:42:54;;;;;;;19.80;15.48;;;;;;;23.97;52.08;100909.19;5033176;28;20056;-58
2022/07/21 06:45:41;;;;;;;17.75;14.13;;;;;;;24.08;52.11;100896.38;5030611;28;20049;-59
2022/07/21 06:48:08;;;;;;;27.40;15.38;;;;;;;24.24;51.39;100907.13;5017775;28;20134;-58
2022/07/21 06:50:36;;;;;;;22.17;14.75;;;;;;;24.27;51.38;100925.59;5010881;28;20061;-58
2022/07/21 06:53:05;;;;;;;22.98;14.68;;;;;;;24.11;51.50;100920.25;5013028;28;20065;-58
2022/07/21 06:55:32;;;;;;;25.40;15.48;;;;;;;24.14;51.53;100925.31;5010995;28;20057;-59
2022/07/21 06:58:17;;;;;;;27.15;15.13;;;;;;;24.24;51.49;100915.19;5024329;28;20068;-59
2022/07/21 07:00:45;;;;;;;22.42;15.00;;;;;;;24.31;51.42;100918.00;5030416;28;20119;-58
2022/07/21 07:03:13;;;;;;;25.23;15.65;;;;;;;24.26;51.00;100940.91;5032580;28;20056;-58
2022/07/21 07:05:41;;;;;;;18.88;14.90;;;;;;;24.39;51.01;100951.16;5011256;28;20053;-59
2022/07/21 07:08:09;;;;;;;23.90;14.48;;;;;;;24.28;51.10;100931.84;5013093;28;20064;-58
2022/07/21 07:10:39;;;;;;;25.02;16.00;;;;;;;24.17;51.33;100946.47;5009208;28;20368;-58
2022/07/21 07:13:07;;;;;;;23.35;14.95;;;;;;;24.26;51.54;100929.28;5011701;28;20085;-58
2022/07/21 07:15:54;;;;;;;23.58;14.98;;;;;;;24.50;51.09;100925.75;5009652;28;20060;-58
2022/07/21 07:18:23;;;;;;;24.70;14.65;;;;;;;24.66;50.23;100917.59;5034046;28;20053;-58
2022/07/21 07:20:51;;;;;;;23.27;14.50;;;;;;;24.72;49.90;100908.81;5025914;28;20056;-59
2022/07/21 07:23:19;;;;;;;22.70;13.40;;;;;;;24.89;50.02;100924.88;5012460;28;20050;-57
2022/07/21 07:25:46;;;;;;;22.33;13.80;;;;;;;25.02;49.69;100927.84;5018542;28;20366;-58
2022/07/21 07:28:13;;;;;;;24.55;14.68;;;;;;;25.00;49.46;100937.97;5032197;28;20129;-57
2022/07/21 07:30:40;;;;;;;21.45;13.95;;;;;;;24.93;49.75;100945.06;5011800;28;20622;-58
2022/07/21 07:33:08;;;;;;;18.17;13.43;;;;;;;24.97;49.40;100927.53;5037161;28;20079;-58
2022/07/21 07:35:35;;;;;;;24.10;13.98;;;;;;;24.91;49.07;100941.72;5029059;28;20053;-57
2022/07/21 07:38:02;;;;;;;21.35;13.68;;;;;;;24.78;49.80;100971.06;5014242;28;20045;-58
2022/07/21 07:40:29;;;;;;;19.33;12.98;;;;;;;24.88;49.64;100971.69;5026496;28;20057;-57
2022/07/21 07:42:57;;;;;;;19.67;13.20;;;;;;;24.97;49.17;100976.00;5031499;28;20073;-58
2022/07/21 07:45:34;;;;;;;21.83;12.27;;;;;;;25.14;49.15;100953.41;5020503;28;20046;-57
2022/07/21 07:48:01;;;;;;;22.90;13.30;;;;;;;25.37;48.50;100960.66;5011702;28;20046;-57
2022/07/21 07:50:28;;;;;;;17.05;13.13;;;;;;;25.48;47.94;100963.75;5009926;28;20152;-56
2022/07/21 07:52:55;;;;;;;19.42;12.60;;;;;;;25.74;47.60;100973.34;5011563;28;20058;-60
2022/07/21 07:55:23;;;;;;;19.67;12.30;;;;;;;25.55;47.55;100965.75;5010924;28;20050;-59
2022/07/21 07:57:50;;;;;;;21.23;12.65;;;;;;;25.78;47.60;100977.41;5030436;28;20060;-60
2022/07/21 08:00:20;;;;;;;21.67;12.68;;;;;;;26.16;46.10;100975.56;5029318;28;20506;-59
2022/07/21 08:03:07;;;;;;;16.75;12.48;;;;;;;26.52;45.92;100977.53;5013600;28;20426;-58
2022/07/21 08:05:34;;;;;;;19.48;12.25;;;;;;;26.60;45.43;100982.84;5009680;28;20418;-59
2022/07/21 08:08:02;;;;;;;20.20;12.38;;;;;;;26.44;45.81;100978.50;5010822;28;20125;-59
2022/07/21 08:10:29;;;;;;;22.17;11.93;;;;;;;26.50;45.66;100974.22;5008797;28;20544;-58
2022/07/21 08:13:13;;;;;;;21.45;11.15;;;;;;;26.43;45.65;100978.63;5028633;28;20512;-59
2022/07/21 08:15:41;;;;;;;19.88;12.20;;;;;;;26.27;46.37;100982.34;5028933;28;20062;-55
2022/07/21 08:18:09;;;;;;;19.17;11.20;;;;;;;26.65;46.12;100985.84;5040042;28;20056;-56
2022/07/21 08:20:37;;;;;;;23.92;12.10;;;;;;;26.77;45.35;100997.00;5032984;28;20064;-58
2022/07/21 08:23:05;;;;;;;26.33;11.57;;;;;;;26.92;45.03;100995.13;5010870;28;20057;-58
2022/07/21 08:25:32;;;;;;;20.20;12.57;;;;;;;26.95;44.75;101002.03;5015047;28;20070;-58
2022/07/21 08:28:00;;;;;;;18.05;12.23;;;;;;;26.90;44.88;100999.06;5029578;28;20053;-58
2022/07/21 08:30:27;;;;;;;17.20;11.52;;;;;;;26.62;45.29;100978.13;5013021;28;20514;-58
2022/07/21 08:32:58;;;;;;;26.35;12.20;;;;;;;26.83;45.36;100979.22;5010785;28;20065;-58
2022/07/21 08:35:26;;;;;;;18.15;11.13;;;;;;;27.07;44.66;100972.66;5009069;28;20057;-56
2022/07/21 08:37:56;;;;;;;15.68;10.85;;;;;;;27.34;43.60;100977.38;5010529;28;20057;-59
2022/07/21 08:40:24;;;;;;;15.18;10.50;;;;;;;27.27;43.33;100992.66;5009847;28;20140;-60
2022/07/21 08:42:53;;;;;;;19.15;10.43;;;;;;;27.22;43.83;101003.22;5029817;28;20067;-56
2022/07/21 08:45:22;;;;;;;16.45;10.50;;;;;;;27.19;43.62;100999.03;5027521;28;20065;-58
2022/07/21 08:47:53;;;;;;;17.52;10.13;;;;;;;27.04;43.47;100998.19;5029010;28;20072;-58
2022/07/21 08:50:25;;;;;;;23.13;10.30;;;;;;;26.83;44.13;100995.41;5028787;28;20069;-58
2022/07/21 08:52:53;;;;;;;26.70;10.23;;;;;;;26.96;44.32;100998.28;5030150;28;20076;-56
2022/07/21 08:55:33;;;;;;;15.82;11.18;;;;;;;27.03;44.03;100999.22;5028485;28;20049;-59
2022/07/21 08:58:03;;;;;;;22.45;11.05;;;;;;;27.05;43.62;100999.88;5029041;28;20048;-57
2022/07/21 09:00:39;;;;;;;16.85;11.50;;;;;;;27.15;43.33;100988.78;5028049;28;20054;-58
2022/07/21 09:03:24;;;;;;;17.80;10.38;;;;;;;27.02;44.11;100998.41;5028047;28;20132;-59
2022/07/21 09:06:06;;;;;;;19.97;11.13;;;;;;;27.41;43.37;100988.25;5032422;28;20050;-59
2022/07/21 09:08:42;;;;;;;15.23;10.35;;;;;;;27.79;42.82;100991.59;5009138;28;20112;-59
2022/07/21 09:11:09;;;;;;;18.30;10.95;;;;;;;27.87;42.04;100987.88;5008376;28;20058;-59
2022/07/21 09:13:37;;;;;;;15.70;10.10;;;;;;;28.00;41.94;100996.94;5009879;28;20514;-56
2022/07/21 09:16:04;;;;;;;17.48;10.60;;;;;;;28.18;41.64;100980.22;5008695;28;20069;-59
2022/07/21 09:18:31;;;;;;;16.60;10.07;;;;;;;28.33;41.09;100982.00;5034390;28;20409;-59
2022/07/21 09:21:00;;;;;;;13.15;9.75;;;;;;;28.48;40.86;100985.47;5047286;28;20053;-58
2022/07/21 09:23:28;;;;;;;17.55;9.70;;;;;;;28.41;40.05;100985.41;5019125;28;20111;-55
2022/07/21 09:25:58;;;;;;;12.23;8.88;;;;;;;28.51;40.04;100988.63;5017585;28;20057;-58
2022/07/21 09:28:27;;;;;;;16.25;9.93;;;;;;;28.47;40.17;100984.63;5028577;28;20405;-59
2022/07/21 09:31:11;;;;;;;13.07;8.77;;;;;;;28.54;40.23;100995.50;5013031;28;20062;-59
2022/07/21 09:33:44;;;;;;;19.30;8.75;;;;;;;28.34;40.41;100989.94;5023009;28;20552;-59
2022/07/21 09:36:13;;;;;;;19.05;8.15;;;;;;;28.51;40.29;101002.16;5027248;28;20054;-58
2022/07/21 09:38:52;;;;;;;12.73;8.20;;;;;;;28.31;39.87;100987.59;5035923;28;20052;-57
2022/07/21 09:41:21;;;;;;;29.48;8.35;;;;;;;28.41;40.00;100998.13;5024672;28;20056;-56
2022/07/21 09:43:54;;;;;;;9.85;7.72;;;;;;;28.51;39.60;100982.38;5037995;28;20061;-58
2022/07/21 09:46:23;;;;;;;13.77;6.97;;;;;;;28.51;39.02;100979.66;5031025;28;20050;-58
2022/07/21 09:48:53;;;;;;;10.90;6.60;;;;;;;28.58;38.85;100996.75;5024862;28;20651;-58
2022/07/21 09:51:43;;;;;;;18.00;7.10;;;;;;;28.58;38.19;100998.66;5006333;28;20053;-59
2022/07/21 09:54:12;;;;;;;21.38;6.85;;;;;;;28.84;38.12;100998.78;5009024;28;20058;-59
2022/07/21 09:56:42;;;;;;;18.13;6.45;;;;;;;29.02;37.68;100999.09;5012952;28;20076;-59
2022/07/21 09:59:11;;;;;;;14.98;6.53;;;;;;;29.03;38.12;100991.81;5028760;28;20226;-59
2022/07/21 10:01:38;;;;;;;8.52;6.05;;;;;;;29.30;37.16;101005.47;5027072;28;20068;-57
2022/07/21 10:04:06;;;;;;;9.68;5.70;;;;;;;29.36;37.26;101019.06;5028704;28;20054;-59
2022/07/21 10:06:38;;;;;;;13.32;5.65;;;;;;;29.47;36.44;101014.91;5015791;28;20157;-59
2022/07/21 10:09:08;;;;;;;16.48;5.85;;;;;;;29.43;36.70;101000.91;5008814;28;20045;-59
2022/07/21 10:11:41;;;;;;;9.13;6.13;;;;;;;29.64;36.76;101002.66;5010646;28;20964;-59
2022/07/21 10:14:10;;;;;;;8.55;6.22;;;;;;;29.86;36.45;101006.00;5028189;28;20061;-59
2022/07/21 10:16:38;;;;;;;12.45;6.30;;;;;;;30.10;36.27;101015.41;5007661;28;20133;-59
2022/07/21 10:19:43;;;;;;;10.43;6.07;;;;;;;30.14;35.88;101015.88;5042491;28;20365;-57
2022/07/21 10:22:36;;;;;;;8.07;6.60;;;;;;;30.05;36.24;101020.63;5030787;28;20068;-57
2022/07/21 10:25:05;;;;;;;7.38;5.68;;;;;;;30.06;36.09;101026.91;4995506;28;20281;-59
2022/07/21 10:27:32;;;;;;;10.27;5.82;;;;;;;29.90;36.38;101022.69;5025643;28;20057;-59
2022/07/21 10:30:37;;;;;;;9.88;6.03;;;;;;;29.63;36.97;101024.53;5006965;28;20050;-59
2022/07/21 10:33:04;;;;;;;10.43;6.07;;;;;;;29.62;36.64;101029.13;5008844;28;20061;-58
2022/07/21 10:35:32;;;;;;;18.75;6.63;;;;;;;29.62;37.09;101031.00;5005918;28;20050;-59
2022/07/21 10:38:42;;;;;;;8.48;6.15;;;;;;;29.47;37.08;101051.00;5007650;28;20072;-59
2022/07/21 10:41:37;;;;;;;17.52;7.47;;;;;;;29.21;37.41;101040.03;4988745;28;20263;-59
2022/07/21 10:44:27;;;;;;;12.50;6.45;;;;;;;29.33;37.71;101049.28;5008389;28;20058;-58
2022/07/21 10:47:04;;;;;;;9.15;6.53;;;;;;;29.40;37.05;101071.81;5007077;28;20525;-59
2022/07/21 10:49:48;;;;;;;10.60;6.05;;;;;;;29.12;37.76;101055.66;5009156;28;20068;-58
2022/07/21 10:52:40;;;;;;;11.10;6.50;;;;;;;29.09;37.82;101049.78;5009215;28;20064;-59
2022/07/21 10:55:10;;;;;;;13.25;6.05;;;;;;;29.16;37.82;101061.50;5007353;28;20058;-58
2022/07/21 10:57:41;;;;;;;11.55;6.07;;;;;;;29.19;37.70;101051.09;5026254;28;20053;-55
2022/07/21 11:00:24;;;;;;;7.72;5.85;;;;;;;29.48;37.46;101040.97;5007984;28;20058;-59
2022/07/21 11:02:54;;;;;;;8.90;6.40;;;;;;;29.76;37.02;101038.13;5027278;28;20053;-61
2022/07/21 11:05:24;;;;;;;12.20;6.00;;;;;;;29.82;36.88;101047.34;5027034;28;20481;-59
2022/07/21 11:08:16;;;;;;;18.77;6.68;;;;;;;29.38;37.24;101045.97;5013838;28;20050;-58
2022/07/21 11:10:49;;;;;;;9.60;5.68;;;;;;;29.30;37.18;101051.56;5010973;28;20057;-59
2022/07/21 11:13:19;;;;;;;18.10;5.80;;;;;;;29.35;37.41;101040.94;5012991;28;20149;-60
2022/07/21 11:15:53;;;;;;;12.48;6.22;;;;;;;29.50;36.67;101050.59;5011168;28;20061;-56
2022/07/21 11:18:22;;;;;;;12.88;5.30;;;;;;;29.75;37.03;101047.31;5034368;28;20063;-57
2022/07/21 11:21:12;;;;;;;9.95;5.68;;;;;;;29.89;35.82;101046.28;5035114;28;20057;-58
2022/07/21 11:23:47;;;;;;;12.75;5.78;;;;;;;29.87;36.12;101031.28;5012694;28;20286;-58
2022/07/21 11:26:18;;;;;;;13.88;5.43;;;;;;;30.15;35.40;101034.66;5022654;28;20054;-58
2022/07/21 11:28:45;;;;;;;6.80;5.00;;;;;;;30.32;35.51;101026.91;5030509;28;20084;-58
2022/07/21 11:31:20;;;;;;;12.70;4.85;;;;;;;30.51;34.49;101031.47;5047593;22;20048;-53